sensor_id;sensor_type;location;lat;lon;timestamp;temperature;humidity
3055;DHT22;1537;52.018;8.542;2023-04-01T00:02:50;9.40;99.90
3055;DHT22;1537;52.018;8.542;2023-04-01T00:06:17;9.40;99.90
3055;DHT22;1537;52.018;8.542;2023-04-01T00:09:41;9.40;99.90
3055;DHT22;1537;52.018;8.542;2023-04-01T00:13:06;9.40;99.90
3055;DHT22;1537;52.018;8.542;2023-04-01T00:16:30;9.40;99.90
3055;DHT22;1537;52.018;8.542;2023-04-01T00:19:55;9.40;99.90
3055;DHT22;1537;52.018;8.542;2023-04-01T00:23:21;9.30;99.90
3055;DHT22;1537;52.018;8.542;2023-04-01T00:26:46;9.30;99.90
3055;DHT22;1537;52.018;8.542;2023-04-01T00:30:12;9.30;99.90
3055;DHT22;1537;52.018;8.542;2023-04-01T00:33:37;9.30;99.90
3055;DHT22;1537;52.018;8.542;2023-04-01T00:37:01;9.30;99.90
3055;DHT22;1537;52.018;8.542;2023-04-01T00:40:30;9.30;99.90
3055;DHT22;1537;52.018;8.542;2023-04-01T00:44:16;9.30;99.90
3055;DHT22;1537;52.018;8.542;2023-04-01T00:47:41;9.30;99.90
3055;DHT22;1537;52.018;8.542;2023-04-01T00:51:09;9.40;99.90
3055;DHT22;1537;52.018;8.542;2023-04-01T00:54:36;9.40;99.90
3055;DHT22;1537;52.018;8.542;2023-04-01T00:58:03;9.30;99.90
3055;DHT22;1537;52.018;8.542;2023-04-01T01:01:29;9.40;99.90
3055;DHT22;1537;52.018;8.542;2023-04-01T01:04:53;9.30;99.90
3055;DHT22;1537;52.018;8.542;2023-04-01T01:08:30;9.30;99.90
3055;DHT22;1537;52.018;8.542;2023-04-01T01:12:05;9.30;99.90
3055;DHT22;1537;52.018;8.542;2023-04-01T01:15:36;9.40;99.90
3055;DHT22;1537;52.018;8.542;2023-04-01T01:19:08;9.40;99.90
3055;DHT22;1537;52.018;8.542;2023-04-01T01:26:51;9.40;99.90
3055;DHT22;1537;52.018;8.542;2023-04-01T01:30:48;9.40;99.90
3055;DHT22;1537;52.018;8.542;2023-04-01T01:34:19;9.40;99.90
3055;DHT22;1537;52.018;8.542;2023-04-01T01:37:52;9.50;99.90
3055;DHT22;1537;52.018;8.542;2023-04-01T01:41:18;9.50;99.90
3055;DHT22;1537;52.018;8.542;2023-04-01T01:44:52;9.40;99.90
3055;DHT22;1537;52.018;8.542;2023-04-01T01:48:17;9.40;99.90
3055;DHT22;1537;52.018;8.542;2023-04-01T01:51:43;9.50;99.90
3055;DHT22;1537;52.018;8.542;2023-04-01T01:58:59;9.50;99.90
3055;DHT22;1537;52.018;8.542;2023-04-01T02:02:25;9.40;99.90
3055;DHT22;1537;52.018;8.542;2023-04-01T02:05:57;9.30;99.90
3055;DHT22;1537;52.018;8.542;2023-04-01T02:09:23;9.40;99.90
3055;DHT22;1537;52.018;8.542;2023-04-01T02:12:48;9.40;99.90
3055;DHT22;1537;52.018;8.542;2023-04-01T02:16:17;9.30;99.90
3055;DHT22;1537;52.018;8.542;2023-04-01T02:19:47;9.30;99.90
3055;DHT22;1537;52.018;8.542;2023-04-01T02:23:14;9.10;99.90
3055;DHT22;1537;52.018;8.542;2023-04-01T02:26:39;9.10;99.90
3055;DHT22;1537;52.018;8.542;2023-04-01T02:30:05;9.10;99.90
3055;DHT22;1537;52.018;8.542;2023-04-01T02:33:31;9.10;99.90
3055;DHT22;1537;52.018;8.542;2023-04-01T02:36:55;9.10;99.90
3055;DHT22;1537;52.018;8.542;2023-04-01T02:40:20;9.10;99.90
3055;DHT22;1537;52.018;8.542;2023-04-01T02:43:45;9.10;99.90
3055;DHT22;1537;52.018;8.542;2023-04-01T02:47:09;9.10;99.90
3055;DHT22;1537;52.018;8.542;2023-04-01T02:50:34;9.10;99.90
3055;DHT22;1537;52.018;8.542;2023-04-01T02:53:58;9.10;99.90
3055;DHT22;1537;52.018;8.542;2023-04-01T02:57:22;9.20;99.90
3055;DHT22;1537;52.018;8.542;2023-04-01T03:00:46;9.20;99.90
3055;DHT22;1537;52.018;8.542;2023-04-01T03:04:11;9.20;99.90
3055;DHT22;1537;52.018;8.542;2023-04-01T03:07:39;9.20;99.90
3055;DHT22;1537;52.018;8.542;2023-04-01T03:11:03;9.20;99.90
3055;DHT22;1537;52.018;8.542;2023-04-01T03:14:30;9.20;99.90
3055;DHT22;1537;52.018;8.542;2023-04-01T03:17:54;9.20;99.90
3055;DHT22;1537;52.018;8.542;2023-04-01T03:21:22;9.20;99.90
3055;DHT22;1537;52.018;8.542;2023-04-01T03:24:49;9.20;99.90
3055;DHT22;1537;52.018;8.542;2023-04-01T03:28:14;9.20;99.90
3055;DHT22;1537;52.018;8.542;2023-04-01T03:31:38;9.20;99.90
3055;DHT22;1537;52.018;8.542;2023-04-01T03:35:02;9.20;99.90
3055;DHT22;1537;52.018;8.542;2023-04-01T03:38:27;9.20;99.90
3055;DHT22;1537;52.018;8.542;2023-04-01T03:41:52;9.20;99.90
3055;DHT22;1537;52.018;8.542;2023-04-01T03:45:25;9.20;99.90
3055;DHT22;1537;52.018;8.542;2023-04-01T03:48:49;9.20;99.90
3055;DHT22;1537;52.018;8.542;2023-04-01T03:52:13;9.10;99.90
3055;DHT22;1537;52.018;8.542;2023-04-01T03:55:37;9.20;99.90
3055;DHT22;1537;52.018;8.542;2023-04-01T03:59:04;9.10;99.90
3055;DHT22;1537;52.018;8.542;2023-04-01T04:02:29;9.10;99.90
3055;DHT22;1537;52.018;8.542;2023-04-01T04:05:53;9.10;99.90
3055;DHT22;1537;52.018;8.542;2023-04-01T04:09:19;9.10;99.90
3055;DHT22;1537;52.018;8.542;2023-04-01T04:12:44;9.10;99.90
3055;DHT22;1537;52.018;8.542;2023-04-01T04:16:12;9.10;99.90
3055;DHT22;1537;52.018;8.542;2023-04-01T04:19:41;9.00;99.90
3055;DHT22;1537;52.018;8.542;2023-04-01T04:23:06;9.00;99.90
3055;DHT22;1537;52.018;8.542;2023-04-01T04:26:32;9.00;99.90
3055;DHT22;1537;52.018;8.542;2023-04-01T04:29:56;9.00;99.90
3055;DHT22;1537;52.018;8.542;2023-04-01T04:33:23;9.00;99.90
3055;DHT22;1537;52.018;8.542;2023-04-01T04:36:47;9.00;99.90
3055;DHT22;1537;52.018;8.542;2023-04-01T04:40:12;9.10;99.90
3055;DHT22;1537;52.018;8.542;2023-04-01T04:43:37;9.00;99.90
3055;DHT22;1537;52.018;8.542;2023-04-01T04:47:02;9.00;99.90
3055;DHT22;1537;52.018;8.542;2023-04-01T04:50:27;9.00;99.90
3055;DHT22;1537;52.018;8.542;2023-04-01T04:53:52;8.90;99.90
3055;DHT22;1537;52.018;8.542;2023-04-01T04:57:25;8.90;99.90
3055;DHT22;1537;52.018;8.542;2023-04-01T05:00:52;8.90;99.90
3055;DHT22;1537;52.018;8.542;2023-04-01T05:04:37;8.90;99.90
3055;DHT22;1537;52.018;8.542;2023-04-01T05:08:05;8.90;99.90
3055;DHT22;1537;52.018;8.542;2023-04-01T05:11:30;8.80;99.90
3055;DHT22;1537;52.018;8.542;2023-04-01T05:14:54;8.80;99.90
3055;DHT22;1537;52.018;8.542;2023-04-01T05:18:19;8.80;99.90
3055;DHT22;1537;52.018;8.542;2023-04-01T05:21:43;8.70;99.90
3055;DHT22;1537;52.018;8.542;2023-04-01T05:25:09;8.70;99.90
3055;DHT22;1537;52.018;8.542;2023-04-01T05:28:33;8.70;99.90
3055;DHT22;1537;52.018;8.542;2023-04-01T05:31:57;8.70;99.90
3055;DHT22;1537;52.018;8.542;2023-04-01T05:35:21;8.70;99.90
3055;DHT22;1537;52.018;8.542;2023-04-01T05:38:45;8.70;99.90
3055;DHT22;1537;52.018;8.542;2023-04-01T05:42:13;8.70;99.90
3055;DHT22;1537;52.018;8.542;2023-04-01T05:45:38;8.70;99.90
3055;DHT22;1537;52.018;8.542;2023-04-01T05:49:05;8.70;99.90
3055;DHT22;1537;52.018;8.542;2023-04-01T05:52:33;8.70;99.90
3055;DHT22;1537;52.018;8.542;2023-04-01T05:56:01;8.70;99.90
3055;DHT22;1537;52.018;8.542;2023-04-01T05:59:28;8.70;99.90
3055;DHT22;1537;52.018;8.542;2023-04-01T06:02:53;8.70;99.90
3055;DHT22;1537;52.018;8.542;2023-04-01T06:06:24;8.70;99.90
3055;DHT22;1537;52.018;8.542;2023-04-01T06:09:52;8.70;99.90
3055;DHT22;1537;52.018;8.542;2023-04-01T06:13:27;8.70;99.90
3055;DHT22;1537;52.018;8.542;2023-04-01T06:17:05;8.80;99.90
3055;DHT22;1537;52.018;8.542;2023-04-01T06:20:38;8.80;99.90
3055;DHT22;1537;52.018;8.542;2023-04-01T06:24:20;8.90;99.90
3055;DHT22;1537;52.018;8.542;2023-04-01T06:32:06;9.00;99.90
3055;DHT22;1537;52.018;8.542;2023-04-01T06:35:46;9.10;99.90
3055;DHT22;1537;52.018;8.542;2023-04-01T06:39:26;9.30;99.90
3055;DHT22;1537;52.018;8.542;2023-04-01T06:43:21;9.60;99.90
3055;DHT22;1537;52.018;8.542;2023-04-01T06:47:19;9.50;99.90
3055;DHT22;1537;52.018;8.542;2023-04-01T06:51:12;9.50;99.90
3055;DHT22;1537;52.018;8.542;2023-04-01T06:55:12;9.50;99.90
3055;DHT22;1537;52.018;8.542;2023-04-01T06:59:10;9.30;99.90
3055;DHT22;1537;52.018;8.542;2023-04-01T07:02:41;9.20;99.90
3055;DHT22;1537;52.018;8.542;2023-04-01T07:06:06;9.20;99.90
3055;DHT22;1537;52.018;8.542;2023-04-01T07:09:49;9.10;99.90
3055;DHT22;1537;52.018;8.542;2023-04-01T07:13:52;9.10;99.90
3055;DHT22;1537;52.018;8.542;2023-04-01T07:17:21;9.00;99.90
3055;DHT22;1537;52.018;8.542;2023-04-01T07:20:49;9.00;99.90
3055;DHT22;1537;52.018;8.542;2023-04-01T07:24:17;9.00;99.90
3055;DHT22;1537;52.018;8.542;2023-04-01T07:28:00;9.00;99.90
3055;DHT22;1537;52.018;8.542;2023-04-01T07:35:26;8.90;99.90
3055;DHT22;1537;52.018;8.542;2023-04-01T07:38:59;8.90;99.90
3055;DHT22;1537;52.018;8.542;2023-04-01T07:47:33;9.30;99.90
3055;DHT22;1537;52.018;8.542;2023-04-01T07:51:02;9.30;99.90
3055;DHT22;1537;52.018;8.542;2023-04-01T07:54:35;9.30;99.90
3055;DHT22;1537;52.018;8.542;2023-04-01T07:58:08;9.30;99.90
3055;DHT22;1537;52.018;8.542;2023-04-01T08:01:44;9.30;99.90
3055;DHT22;1537;52.018;8.542;2023-04-01T08:05:19;9.40;99.90
3055;DHT22;1537;52.018;8.542;2023-04-01T08:08:54;9.40;99.90
3055;DHT22;1537;52.018;8.542;2023-04-01T08:12:54;9.40;99.90
3055;DHT22;1537;52.018;8.542;2023-04-01T08:16:46;9.50;99.90
3055;DHT22;1537;52.018;8.542;2023-04-01T08:20:30;9.70;99.90
3055;DHT22;1537;52.018;8.542;2023-04-01T08:23:57;9.60;99.90
3055;DHT22;1537;52.018;8.542;2023-04-01T08:27:27;9.70;99.90
3055;DHT22;1537;52.018;8.542;2023-04-01T08:30:57;9.80;99.90
3055;DHT22;1537;52.018;8.542;2023-04-01T08:34:26;10.00;99.90
3055;DHT22;1537;52.018;8.542;2023-04-01T08:37:57;9.90;99.90
3055;DHT22;1537;52.018;8.542;2023-04-01T08:46:30;10.00;99.90
3055;DHT22;1537;52.018;8.542;2023-04-01T09:06:46;10.50;99.90
3055;DHT22;1537;52.018;8.542;2023-04-01T09:14:57;10.70;99.90
3055;DHT22;1537;52.018;8.542;2023-04-01T09:22:41;11.30;99.90
3055;DHT22;1537;52.018;8.542;2023-04-01T09:26:23;11.50;99.90
3055;DHT22;1537;52.018;8.542;2023-04-01T09:30:28;11.30;99.90
3055;DHT22;1537;52.018;8.542;2023-04-01T09:34:13;11.60;99.90
3055;DHT22;1537;52.018;8.542;2023-04-01T09:38:00;11.60;99.90
3055;DHT22;1537;52.018;8.542;2023-04-01T09:41:31;11.80;99.90
3055;DHT22;1537;52.018;8.542;2023-04-01T09:45:25;11.90;99.90
3055;DHT22;1537;52.018;8.542;2023-04-01T09:49:26;11.90;99.90
3055;DHT22;1537;52.018;8.542;2023-04-01T09:53:03;11.90;99.90
3055;DHT22;1537;52.018;8.542;2023-04-01T09:57:01;11.70;99.90
3055;DHT22;1537;52.018;8.542;2023-04-01T10:13:02;11.60;99.90
3055;DHT22;1537;52.018;8.542;2023-04-01T10:16:52;11.50;99.90
3055;DHT22;1537;52.018;8.542;2023-04-01T10:20:59;11.40;99.90
3055;DHT22;1537;52.018;8.542;2023-04-01T10:33:09;13.10;99.90
3055;DHT22;1537;52.018;8.542;2023-04-01T10:36:52;13.50;99.90
3055;DHT22;1537;52.018;8.542;2023-04-01T10:40:47;13.20;99.90
3055;DHT22;1537;52.018;8.542;2023-04-01T10:48:57;12.60;99.90
3055;DHT22;1537;52.018;8.542;2023-04-01T10:53:06;12.30;99.90
3055;DHT22;1537;52.018;8.542;2023-04-01T10:57:14;12.00;99.90
3055;DHT22;1537;52.018;8.542;2023-04-01T11:26:55;11.60;99.90
3055;DHT22;1537;52.018;8.542;2023-04-01T11:39:01;11.50;99.90
3055;DHT22;1537;52.018;8.542;2023-04-01T11:42:55;11.60;99.90
3055;DHT22;1537;52.018;8.542;2023-04-01T11:46:56;11.80;99.90
3055;DHT22;1537;52.018;8.542;2023-04-01T11:50:33;11.90;99.90
3055;DHT22;1537;52.018;8.542;2023-04-01T11:54:14;11.70;99.90
3055;DHT22;1537;52.018;8.542;2023-04-01T11:58:03;11.50;99.90
3055;DHT22;1537;52.018;8.542;2023-04-01T12:01:47;11.50;99.90
3055;DHT22;1537;52.018;8.542;2023-04-01T12:05:28;11.70;99.90
3055;DHT22;1537;52.018;8.542;2023-04-01T12:09:03;11.80;99.90
3055;DHT22;1537;52.018;8.542;2023-04-01T12:12:32;12.00;99.90
3055;DHT22;1537;52.018;8.542;2023-04-01T12:16:35;11.90;99.90
3055;DHT22;1537;52.018;8.542;2023-04-01T12:20:19;11.80;99.90
3055;DHT22;1537;52.018;8.542;2023-04-01T12:24:19;11.90;99.90
3055;DHT22;1537;52.018;8.542;2023-04-01T12:28:00;11.90;99.90
3055;DHT22;1537;52.018;8.542;2023-04-01T12:31:37;11.70;99.90
3055;DHT22;1537;52.018;8.542;2023-04-01T12:35:18;11.80;99.90
3055;DHT22;1537;52.018;8.542;2023-04-01T12:38:58;11.70;99.90
3055;DHT22;1537;52.018;8.542;2023-04-01T12:42:40;11.70;99.90
3055;DHT22;1537;52.018;8.542;2023-04-01T12:46:15;11.80;99.90
3055;DHT22;1537;52.018;8.542;2023-04-01T12:50:02;12.00;99.90
3055;DHT22;1537;52.018;8.542;2023-04-01T12:53:55;12.00;99.90
3055;DHT22;1537;52.018;8.542;2023-04-01T12:57:31;11.80;99.90
3055;DHT22;1537;52.018;8.542;2023-04-01T13:01:16;11.70;99.90
3055;DHT22;1537;52.018;8.542;2023-04-01T13:05:01;11.60;99.90
3055;DHT22;1537;52.018;8.542;2023-04-01T13:08:37;11.70;99.90
3055;DHT22;1537;52.018;8.542;2023-04-01T13:12:23;11.60;99.90
3055;DHT22;1537;52.018;8.542;2023-04-01T13:15:54;11.40;99.90
3055;DHT22;1537;52.018;8.542;2023-04-01T13:19:23;11.30;99.90
3055;DHT22;1537;52.018;8.542;2023-04-01T13:23:00;11.10;99.90
3055;DHT22;1537;52.018;8.542;2023-04-01T13:26:35;10.80;99.90
3055;DHT22;1537;52.018;8.542;2023-04-01T13:30:16;10.90;99.90
3055;DHT22;1537;52.018;8.542;2023-04-01T13:33:47;11.00;99.90
3055;DHT22;1537;52.018;8.542;2023-04-01T13:38:16;11.10;99.90
3055;DHT22;1537;52.018;8.542;2023-04-01T13:42:05;11.20;99.90
3055;DHT22;1537;52.018;8.542;2023-04-01T13:49:54;11.50;99.90
3055;DHT22;1537;52.018;8.542;2023-04-01T13:53:42;11.70;99.90
3055;DHT22;1537;52.018;8.542;2023-04-01T13:57:29;11.50;99.90
3055;DHT22;1537;52.018;8.542;2023-04-01T14:01:21;11.50;99.90
3055;DHT22;1537;52.018;8.542;2023-04-01T14:05:00;11.50;99.90
3055;DHT22;1537;52.018;8.542;2023-04-01T14:08:36;11.60;99.90
3055;DHT22;1537;52.018;8.542;2023-04-01T14:12:12;11.70;99.90
3055;DHT22;1537;52.018;8.542;2023-04-01T14:16:00;11.70;99.90
3055;DHT22;1537;52.018;8.542;2023-04-01T14:19:42;11.60;99.90
3055;DHT22;1537;52.018;8.542;2023-04-01T14:23:20;11.60;99.90
3055;DHT22;1537;52.018;8.542;2023-04-01T14:27:13;11.50;99.90
3055;DHT22;1537;52.018;8.542;2023-04-01T14:31:08;11.50;99.90
3055;DHT22;1537;52.018;8.542;2023-04-01T14:34:49;11.30;99.90
3055;DHT22;1537;52.018;8.542;2023-04-01T14:38:26;11.30;99.90
3055;DHT22;1537;52.018;8.542;2023-04-01T14:41:59;11.30;99.90
3055;DHT22;1537;52.018;8.542;2023-04-01T14:46:05;11.20;99.90
3055;DHT22;1537;52.018;8.542;2023-04-01T14:49:37;11.10;99.90
3055;DHT22;1537;52.018;8.542;2023-04-01T14:53:13;11.00;99.90
3055;DHT22;1537;52.018;8.542;2023-04-01T14:56:41;11.10;99.90
3055;DHT22;1537;52.018;8.542;2023-04-01T15:00:13;11.20;99.90
3055;DHT22;1537;52.018;8.542;2023-04-01T15:03:50;11.40;99.90
3055;DHT22;1537;52.018;8.542;2023-04-01T15:07:49;11.60;99.90
3055;DHT22;1537;52.018;8.542;2023-04-01T15:11:25;11.60;99.90
3055;DHT22;1537;52.018;8.542;2023-04-01T15:15:20;11.70;99.90
3055;DHT22;1537;52.018;8.542;2023-04-01T15:19:00;11.80;99.90
3055;DHT22;1537;52.018;8.542;2023-04-01T15:22:43;11.80;99.90
3055;DHT22;1537;52.018;8.542;2023-04-01T15:26:22;11.80;99.90
3055;DHT22;1537;52.018;8.542;2023-04-01T15:37:51;11.20;99.90
3055;DHT22;1537;52.018;8.542;2023-04-01T15:41:22;11.10;99.90
3055;DHT22;1537;52.018;8.542;2023-04-01T15:44:55;11.10;99.90
3055;DHT22;1537;52.018;8.542;2023-04-01T15:48:44;10.90;99.90
3055;DHT22;1537;52.018;8.542;2023-04-01T15:52:16;11.00;99.90
3055;DHT22;1537;52.018;8.542;2023-04-01T15:55:46;11.10;99.90
3055;DHT22;1537;52.018;8.542;2023-04-01T15:59:22;11.10;99.90
3055;DHT22;1537;52.018;8.542;2023-04-01T16:03:09;11.00;99.90
3055;DHT22;1537;52.018;8.542;2023-04-01T16:06:52;11.20;99.90
3055;DHT22;1537;52.018;8.542;2023-04-01T16:10:52;11.10;99.90
3055;DHT22;1537;52.018;8.542;2023-04-01T16:14:28;10.90;99.90
3055;DHT22;1537;52.018;8.542;2023-04-01T16:18:13;10.90;99.90
3055;DHT22;1537;52.018;8.542;2023-04-01T16:21:45;10.80;99.90
3055;DHT22;1537;52.018;8.542;2023-04-01T16:25:20;10.80;99.90
3055;DHT22;1537;52.018;8.542;2023-04-01T16:28:52;10.50;99.90
3055;DHT22;1537;52.018;8.542;2023-04-01T16:32:23;10.50;99.90
3055;DHT22;1537;52.018;8.542;2023-04-01T16:35:55;10.50;99.90
3055;DHT22;1537;52.018;8.542;2023-04-01T16:39:30;10.50;99.90
3055;DHT22;1537;52.018;8.542;2023-04-01T16:43:10;10.40;99.90
3055;DHT22;1537;52.018;8.542;2023-04-01T16:46:38;10.40;99.90
3055;DHT22;1537;52.018;8.542;2023-04-01T16:50:11;10.40;99.90
3055;DHT22;1537;52.018;8.542;2023-04-01T16:53:41;10.40;99.90
3055;DHT22;1537;52.018;8.542;2023-04-01T16:57:18;10.40;99.90
3055;DHT22;1537;52.018;8.542;2023-04-01T17:00:48;10.40;99.90
3055;DHT22;1537;52.018;8.542;2023-04-01T17:04:29;10.40;99.90
3055;DHT22;1537;52.018;8.542;2023-04-01T17:08:01;10.40;99.90
3055;DHT22;1537;52.018;8.542;2023-04-01T17:11:34;10.40;99.90
3055;DHT22;1537;52.018;8.542;2023-04-01T17:15:07;10.40;99.90
3055;DHT22;1537;52.018;8.542;2023-04-01T17:18:43;10.40;99.90
3055;DHT22;1537;52.018;8.542;2023-04-01T17:22:27;10.50;99.90
3055;DHT22;1537;52.018;8.542;2023-04-01T17:26:01;10.50;99.90
3055;DHT22;1537;52.018;8.542;2023-04-01T17:29:39;10.50;99.90
3055;DHT22;1537;52.018;8.542;2023-04-01T17:41:05;9.60;99.90
3055;DHT22;1537;52.018;8.542;2023-04-01T17:44:44;9.50;99.90
3055;DHT22;1537;52.018;8.542;2023-04-01T17:48:18;9.40;99.90
3055;DHT22;1537;52.018;8.542;2023-04-01T17:51:51;9.30;99.90
3055;DHT22;1537;52.018;8.542;2023-04-01T17:59:22;9.20;99.90
3055;DHT22;1537;52.018;8.542;2023-04-01T18:02:54;9.10;99.90
3055;DHT22;1537;52.018;8.542;2023-04-01T18:06:21;9.00;99.90
3055;DHT22;1537;52.018;8.542;2023-04-01T18:09:57;9.00;99.90
3055;DHT22;1537;52.018;8.542;2023-04-01T18:13:40;8.90;99.90
3055;DHT22;1537;52.018;8.542;2023-04-01T18:17:27;9.00;99.90
3055;DHT22;1537;52.018;8.542;2023-04-01T18:21:02;8.90;99.90
3055;DHT22;1537;52.018;8.542;2023-04-01T18:24:32;8.90;99.90
3055;DHT22;1537;52.018;8.542;2023-04-01T18:28:14;8.90;99.90
3055;DHT22;1537;52.018;8.542;2023-04-01T18:31:44;8.80;99.90
3055;DHT22;1537;52.018;8.542;2023-04-01T18:43:21;8.70;99.90
3055;DHT22;1537;52.018;8.542;2023-04-01T18:47:00;8.50;99.90
3055;DHT22;1537;52.018;8.542;2023-04-01T18:50:36;8.50;99.90
3055;DHT22;1537;52.018;8.542;2023-04-01T18:54:04;8.40;99.90
3055;DHT22;1537;52.018;8.542;2023-04-01T18:57:39;8.30;99.90
3055;DHT22;1537;52.018;8.542;2023-04-01T19:01:13;8.20;99.90
3055;DHT22;1537;52.018;8.542;2023-04-01T19:04:41;8.20;99.90
3055;DHT22;1537;52.018;8.542;2023-04-01T19:08:24;8.10;99.90
3055;DHT22;1537;52.018;8.542;2023-04-01T19:15:48;8.00;99.90
3055;DHT22;1537;52.018;8.542;2023-04-01T19:19:33;7.90;99.90
3055;DHT22;1537;52.018;8.542;2023-04-01T19:23:37;7.90;99.90
3055;DHT22;1537;52.018;8.542;2023-04-01T19:27:13;7.80;99.90
3055;DHT22;1537;52.018;8.542;2023-04-01T19:30:51;7.70;99.90
3055;DHT22;1537;52.018;8.542;2023-04-01T19:34:25;7.80;99.90
3055;DHT22;1537;52.018;8.542;2023-04-01T19:37:56;7.70;99.90
3055;DHT22;1537;52.018;8.542;2023-04-01T19:41:40;7.60;99.90
3055;DHT22;1537;52.018;8.542;2023-04-01T19:45:22;7.50;99.90
3055;DHT22;1537;52.018;8.542;2023-04-01T19:49:08;7.40;99.90
3055;DHT22;1537;52.018;8.542;2023-04-01T19:52:40;7.50;99.90
3055;DHT22;1537;52.018;8.542;2023-04-01T19:56:15;7.50;99.90
3055;DHT22;1537;52.018;8.542;2023-04-01T19:59:50;7.50;99.90
3055;DHT22;1537;52.018;8.542;2023-04-01T20:03:39;7.30;99.90
3055;DHT22;1537;52.018;8.542;2023-04-01T20:07:10;7.30;99.90
3055;DHT22;1537;52.018;8.542;2023-04-01T20:10:45;7.40;99.90
3055;DHT22;1537;52.018;8.542;2023-04-01T20:14:20;7.30;99.90
3055;DHT22;1537;52.018;8.542;2023-04-01T20:17:54;7.20;99.90
3055;DHT22;1537;52.018;8.542;2023-04-01T20:21:30;7.20;99.90
3055;DHT22;1537;52.018;8.542;2023-04-01T20:25:05;7.10;99.90
3055;DHT22;1537;52.018;8.542;2023-04-01T20:28:42;7.10;99.90
3055;DHT22;1537;52.018;8.542;2023-04-01T20:32:20;7.00;99.90
3055;DHT22;1537;52.018;8.542;2023-04-01T20:36:03;7.00;99.90
3055;DHT22;1537;52.018;8.542;2023-04-01T20:39:59;7.00;99.90
3055;DHT22;1537;52.018;8.542;2023-04-01T20:43:57;7.00;99.90
3055;DHT22;1537;52.018;8.542;2023-04-01T20:47:41;6.90;99.90
3055;DHT22;1537;52.018;8.542;2023-04-01T20:51:15;7.00;99.90
3055;DHT22;1537;52.018;8.542;2023-04-01T20:54:54;7.00;99.90
3055;DHT22;1537;52.018;8.542;2023-04-01T20:58:35;7.00;99.90
3055;DHT22;1537;52.018;8.542;2023-04-01T21:02:25;6.90;99.90
3055;DHT22;1537;52.018;8.542;2023-04-01T21:06:15;6.80;99.90
3055;DHT22;1537;52.018;8.542;2023-04-01T21:09:58;6.70;99.90
3055;DHT22;1537;52.018;8.542;2023-04-01T21:13:47;6.70;99.90
3055;DHT22;1537;52.018;8.542;2023-04-01T21:17:29;6.60;99.90
3055;DHT22;1537;52.018;8.542;2023-04-01T21:29:12;6.60;99.90
3055;DHT22;1537;52.018;8.542;2023-04-01T21:32:52;6.50;99.90
3055;DHT22;1537;52.018;8.542;2023-04-01T21:36:43;6.50;99.90
3055;DHT22;1537;52.018;8.542;2023-04-01T21:40:35;6.50;99.90
3055;DHT22;1537;52.018;8.542;2023-04-01T21:44:27;6.40;99.90
3055;DHT22;1537;52.018;8.542;2023-04-01T21:52:38;6.20;99.90
3055;DHT22;1537;52.018;8.542;2023-04-01T22:00:18;6.00;99.90
3055;DHT22;1537;52.018;8.542;2023-04-01T22:04:03;6.00;99.90
3055;DHT22;1537;52.018;8.542;2023-04-01T22:07:39;5.90;99.90
3055;DHT22;1537;52.018;8.542;2023-04-01T22:11:18;5.90;99.90
3055;DHT22;1537;52.018;8.542;2023-04-01T22:14:58;5.90;99.90
3055;DHT22;1537;52.018;8.542;2023-04-01T22:18:32;5.90;99.90
3055;DHT22;1537;52.018;8.542;2023-04-01T22:22:02;5.90;99.90
3055;DHT22;1537;52.018;8.542;2023-04-01T22:25:34;5.80;99.90
3055;DHT22;1537;52.018;8.542;2023-04-01T22:29:06;5.70;99.90
3055;DHT22;1537;52.018;8.542;2023-04-01T22:32:40;5.60;99.90
3055;DHT22;1537;52.018;8.542;2023-04-01T22:36:18;5.50;99.90
3055;DHT22;1537;52.018;8.542;2023-04-01T22:40:00;5.50;99.90
3055;DHT22;1537;52.018;8.542;2023-04-01T22:43:36;5.40;99.90
3055;DHT22;1537;52.018;8.542;2023-04-01T22:47:05;5.40;99.90
3055;DHT22;1537;52.018;8.542;2023-04-01T22:50:34;5.40;99.90
3055;DHT22;1537;52.018;8.542;2023-04-01T22:54:06;5.30;99.90
3055;DHT22;1537;52.018;8.542;2023-04-01T22:57:40;5.30;99.90
3055;DHT22;1537;52.018;8.542;2023-04-01T23:01:17;5.40;99.90
3055;DHT22;1537;52.018;8.542;2023-04-01T23:04:51;5.40;99.90
3055;DHT22;1537;52.018;8.542;2023-04-01T23:12:25;5.40;99.90
3055;DHT22;1537;52.018;8.542;2023-04-01T23:15:50;5.40;99.90
3055;DHT22;1537;52.018;8.542;2023-04-01T23:19:20;5.40;99.90
3055;DHT22;1537;52.018;8.542;2023-04-01T23:22:56;5.40;99.90
3055;DHT22;1537;52.018;8.542;2023-04-01T23:26:25;5.40;99.90
3055;DHT22;1537;52.018;8.542;2023-04-01T23:29:53;5.30;99.90
3055;DHT22;1537;52.018;8.542;2023-04-01T23:33:27;5.10;99.90
3055;DHT22;1537;52.018;8.542;2023-04-01T23:36:56;5.20;99.90
3055;DHT22;1537;52.018;8.542;2023-04-01T23:40:21;5.10;99.90
3055;DHT22;1537;52.018;8.542;2023-04-01T23:43:54;5.10;99.90
3055;DHT22;1537;52.018;8.542;2023-04-01T23:47:21;5.10;99.90
3055;DHT22;1537;52.018;8.542;2023-04-01T23:50:46;5.10;99.90
3055;DHT22;1537;52.018;8.542;2023-04-01T23:54:18;5.10;99.90
3055;DHT22;1537;52.018;8.542;2023-04-01T23:58:12;5.00;99.90
